Aérodrome :
LOGIN :

S'inscrire | Disclaimer

   EN    FR    IT 

 










Légende :    VFR   VFR Marginal   IFR   IFR Intensif   IFR Très Intensif
Visi : 
Plafond : 
>= 8 km
>= 3000ft
5 à 8 km
1000 à 3000 ft
1500m à 5 km
500 à 1000 ft
800 à 1500m
200 à 500 ft
< 800m
< 200 ft
Symboles :   Orages  Brouillard  Fortes neiges  Fortes précipitations  Vent > 20 kt
SIGMETs :   Divers  Orages  Givrage  Turbulence  Onde Orograph.  Cendres Volcan.






- Altitude de l'aérodrome : 339 ft
- Code IATA : UTI


EFUT - Utti Air Base

DERNIER METAR :
  • 040920Z AUTO 28011KT 250V320 CAVOK 03/M07 Q1008

METARs EXPIRÉS :
  • 040850Z AUTO 28014KT 250V310 CAVOK 03/M07 Q1008
  • 040820Z AUTO 27014KT 240V300 9999 FEW033 02/M07 Q1007
  • 040750Z AUTO 27013KT 9999 FEW026 01/M06 Q1007
  • 040720Z AUTO 27012KT 9999 SCT021 01/M05 Q1006
  • 040650Z AUTO 28010KT 250V320 9999 SCT020 00/M04 Q1006

Prévision TAF périmée.



MET'MAP, la Météo Aéronautique d'un coup d'oeil ! - Copyright ORBIFLY Décembre 2007 - Disclaimer

ORBIFLY MET'MAP TEAM :

Programmation & Développement : Alexandra Zaïnal
Sur une idée originale de : Baudouin d'Aumeries
Assistance à la programmation : Marc-Olivier Méhu
Soutien technique & logistique : Manuel Goepfert

Contact : metmap@orbifly.com




SOURCES & CREDITS :

   NOAA